Impacts METAR Board
IDs:

KPIE - St Petersburg/Clearw, FL, US

Updated at: 1900 UTC 21 Sep 2021
Potential Impact None Slight Moderate High
Time 21/07Z 21/08Z 21/09Z 21/10Z 21/11Z 21/12Z 21/13Z 21/14Z 21/15Z 21/16Z 21/17Z 21/18Z 21/19Z
Temp77 76 75 74 74 76 80 81 83 84 86 87 89
Dewpt74 72 72 72 72 73 74 73 75 74 74 74 75
Altim30.00 29.98 29.99 30.00 30.02 30.04 30.05 30.06 30.07 30.07 30.06 30.03 30.01
VIS10 10 10 10 10 10 10 10 10 10 10 10 10
CIG-- -- -- -- -- -- -- -- -- -- -- -- --
CoverCLRCLRCLRCLRCLRCLRCLRCLRCLRSCTCLRSCTFEW
FltCatVFRVFRVFRVFRVFRVFRVFRVFRVFRVFRVFRVFRVFR
WX--------------------------
WDir150000012012011060604030350
WSpd5 0 0 0 0 3 5 4 5 6 6 5 4
WGst-- -- -- -- -- -- -- -- -- -- -- -- --
Raw hourly METARs
KPIE 210653Z AUTO 15005KT 10SM > CLR 25/23 A3000 RMK AO2 SLP157 T02500233
KPIE 210753Z AUTO 00000KT 10SM CLR 24/22 A2998 RMK AO2 SLP152 T02440222
KPIE 210853Z AUTO 00000KT 10SM CLR 24/22 A2999 RMK AO2 SLP153 T02390222 55008
KPIE 210953Z 00000KT 10SM CLR 23/22 A3000 RMK AO2 SLP158 T02330222
KPIE 211053Z 00000KT 10SM CLR 23/22 A3002 RMK AO2 SLP165 T02330222
KPIE 211153Z 12003KT 10SM CLR 24/23 A3004 RMK AO2 SLP170 T02440228 10250 20233 53017
KPIE 211253Z 12005KT 10SM CLR 27/23 A3005 RMK AO2 SLP175 T02670233
KPIE 211353Z 11004KT 10SM CLR 27/23 A3006 RMK AO2 SLP179 T02720228
KPIE 211453Z 06005KT 10SM CLR 28/24 A3007 RMK AO2 SLP182 T02830239 51012
KPIE 211553Z 06006KT 10SM SCT025 29/23 A3007 RMK AO2 SLP181 T02890233
KPIE 211653Z 04006KT 10SM CLR 30/23 A3006 RMK AO2 SLP178 T03000233
KPIE 211753Z 03005KT 10SM SCT048 31/23 A3003 RMK AO2 SLP169 T03060233 10311 20244 58013
KPIE 211853Z AUTO 35004KT 10SM FEW040 32/24 A3001 RMK AO2 SLP161 T03170239



Page loaded:  19:27 UTC  |   12:27 PM Pacific  |   01:27 PM Mountain  |   02:27 PM Central  |   03:27 PM Eastern

 

ADVISORIES

FORECASTS

FORECASTS

OBSERVATIONS

USER TOOLS

ABOUT US